sensor_id;sensor_type;location;lat;lon;timestamp;P1;durP1;ratioP1;P2;durP2;ratioP2
66487;SDS011;53304;54.550;18.526;2022-12-08T00:01:21;5.18;;;1.40;;
66487;SDS011;53304;54.550;18.526;2022-12-08T00:03:50;3.28;;;1.30;;
66487;SDS011;53304;54.550;18.526;2022-12-08T00:09:11;2.50;;;1.33;;
66487;SDS011;53304;54.550;18.526;2022-12-08T00:11:51;3.53;;;1.38;;
66487;SDS011;53304;54.550;18.526;2022-12-08T00:16:59;2.83;;;1.42;;
66487;SDS011;53304;54.550;18.526;2022-12-08T00:19:27;4.47;;;1.30;;
66487;SDS011;53304;54.550;18.526;2022-12-08T00:21:56;3.13;;;1.40;;
66487;SDS011;53304;54.550;18.526;2022-12-08T00:24:23;4.75;;;1.42;;
66487;SDS011;53304;54.550;18.526;2022-12-08T00:26:53;2.97;;;1.25;;
66487;SDS011;53304;54.550;18.526;2022-12-08T00:29:21;4.40;;;1.35;;
66487;SDS011;53304;54.550;18.526;2022-12-08T00:31:47;3.92;;;1.33;;
66487;SDS011;53304;54.550;18.526;2022-12-08T00:34:14;4.43;;;1.35;;
66487;SDS011;53304;54.550;18.526;2022-12-08T00:36:45;5.25;;;1.20;;
66487;SDS011;53304;54.550;18.526;2022-12-08T00:39:11;4.38;;;1.40;;
66487;SDS011;53304;54.550;18.526;2022-12-08T00:41:42;3.70;;;1.30;;
66487;SDS011;53304;54.550;18.526;2022-12-08T00:44:27;5.25;;;1.30;;
66487;SDS011;53304;54.550;18.526;2022-12-08T00:46:52;4.00;;;1.33;;
66487;SDS011;53304;54.550;18.526;2022-12-08T00:49:18;3.33;;;1.30;;
66487;SDS011;53304;54.550;18.526;2022-12-08T00:51:44;2.58;;;1.25;;
66487;SDS011;53304;54.550;18.526;2022-12-08T00:54:11;1.95;;;1.05;;
66487;SDS011;53304;54.550;18.526;2022-12-08T00:56:40;3.05;;;1.25;;
66487;SDS011;53304;54.550;18.526;2022-12-08T00:59:08;1.75;;;1.10;;
66487;SDS011;53304;54.550;18.526;2022-12-08T01:01:34;2.10;;;1.00;;
66487;SDS011;53304;54.550;18.526;2022-12-08T01:04:03;2.42;;;1.08;;
66487;SDS011;53304;54.550;18.526;2022-12-08T01:06:33;4.60;;;1.30;;
66487;SDS011;53304;54.550;18.526;2022-12-08T01:08:59;2.95;;;1.20;;
66487;SDS011;53304;54.550;18.526;2022-12-08T01:11:25;2.83;;;1.20;;
66487;SDS011;53304;54.550;18.526;2022-12-08T01:13:51;3.65;;;1.10;;
66487;SDS011;53304;54.550;18.526;2022-12-08T01:16:20;4.53;;;1.30;;
66487;SDS011;53304;54.550;18.526;2022-12-08T01:18:49;2.58;;;1.20;;
66487;SDS011;53304;54.550;18.526;2022-12-08T01:21:14;1.80;;;1.00;;
66487;SDS011;53304;54.550;18.526;2022-12-08T01:23:40;4.45;;;1.00;;
66487;SDS011;53304;54.550;18.526;2022-12-08T01:26:06;2.42;;;1.20;;
66487;SDS011;53304;54.550;18.526;2022-12-08T01:28:32;2.75;;;1.20;;
66487;SDS011;53304;54.550;18.526;2022-12-08T01:31:00;3.17;;;1.08;;
66487;SDS011;53304;54.550;18.526;2022-12-08T01:33:28;4.70;;;1.10;;
66487;SDS011;53304;54.550;18.526;2022-12-08T01:36:01;2.13;;;1.05;;
66487;SDS011;53304;54.550;18.526;2022-12-08T01:38:32;1.98;;;1.15;;
66487;SDS011;53304;54.550;18.526;2022-12-08T01:40:57;2.58;;;1.00;;
66487;SDS011;53304;54.550;18.526;2022-12-08T01:43:23;3.08;;;1.00;;
66487;SDS011;53304;54.550;18.526;2022-12-08T01:45:48;3.10;;;1.10;;
66487;SDS011;53304;54.550;18.526;2022-12-08T01:48:23;3.53;;;1.27;;
66487;SDS011;53304;54.550;18.526;2022-12-08T01:50:50;2.85;;;1.35;;
66487;SDS011;53304;54.550;18.526;2022-12-08T01:53:21;3.42;;;1.23;;
66487;SDS011;53304;54.550;18.526;2022-12-08T01:55:49;1.67;;;1.00;;
66487;SDS011;53304;54.550;18.526;2022-12-08T01:58:20;2.00;;;1.08;;
66487;SDS011;53304;54.550;18.526;2022-12-08T02:03:43;1.88;;;1.10;;
66487;SDS011;53304;54.550;18.526;2022-12-08T02:06:14;3.03;;;1.20;;
66487;SDS011;53304;54.550;18.526;2022-12-08T02:08:40;1.88;;;0.90;;
66487;SDS011;53304;54.550;18.526;2022-12-08T02:11:12;2.85;;;1.08;;
66487;SDS011;53304;54.550;18.526;2022-12-08T02:13:40;0.93;;;0.68;;
66487;SDS011;53304;54.550;18.526;2022-12-08T02:22:43;1.70;;;0.80;;
66487;SDS011;53304;54.550;18.526;2022-12-08T02:25:16;2.83;;;1.00;;
66487;SDS011;53304;54.550;18.526;2022-12-08T02:35:24;1.52;;;0.82;;
66487;SDS011;53304;54.550;18.526;2022-12-08T02:43:34;1.75;;;0.93;;
66487;SDS011;53304;54.550;18.526;2022-12-08T02:46:08;1.70;;;0.90;;
66487;SDS011;53304;54.550;18.526;2022-12-08T02:48:38;1.75;;;0.90;;
66487;SDS011;53304;54.550;18.526;2022-12-08T02:51:06;2.85;;;0.90;;
66487;SDS011;53304;54.550;18.526;2022-12-08T02:53:34;1.95;;;1.10;;
66487;SDS011;53304;54.550;18.526;2022-12-08T03:01:55;2.22;;;1.00;;
66487;SDS011;53304;54.550;18.526;2022-12-08T03:04:29;2.20;;;0.80;;
66487;SDS011;53304;54.550;18.526;2022-12-08T03:07:34;2.67;;;0.90;;
66487;SDS011;53304;54.550;18.526;2022-12-08T03:12:41;1.08;;;0.80;;
66487;SDS011;53304;54.550;18.526;2022-12-08T03:15:15;3.60;;;1.27;;
66487;SDS011;53304;54.550;18.526;2022-12-08T03:17:44;2.80;;;1.00;;
66487;SDS011;53304;54.550;18.526;2022-12-08T03:20:12;5.32;;;0.90;;
66487;SDS011;53304;54.550;18.526;2022-12-08T03:22:42;1.77;;;0.90;;
66487;SDS011;53304;54.550;18.526;2022-12-08T03:25:12;2.45;;;0.80;;
66487;SDS011;53304;54.550;18.526;2022-12-08T03:27:39;4.13;;;1.00;;
66487;SDS011;53304;54.550;18.526;2022-12-08T03:30:07;1.90;;;0.85;;
66487;SDS011;53304;54.550;18.526;2022-12-08T03:32:34;1.23;;;0.70;;
66487;SDS011;53304;54.550;18.526;2022-12-08T03:35:04;1.08;;;0.82;;
66487;SDS011;53304;54.550;18.526;2022-12-08T03:37:34;1.00;;;0.68;;
66487;SDS011;53304;54.550;18.526;2022-12-08T03:40:03;1.55;;;0.70;;
66487;SDS011;53304;54.550;18.526;2022-12-08T03:42:30;2.13;;;0.85;;
66487;SDS011;53304;54.550;18.526;2022-12-08T03:44:55;2.38;;;0.70;;
66487;SDS011;53304;54.550;18.526;2022-12-08T03:47:21;1.17;;;0.90;;
66487;SDS011;53304;54.550;18.526;2022-12-08T03:49:48;2.53;;;0.70;;
66487;SDS011;53304;54.550;18.526;2022-12-08T03:52:16;2.90;;;0.93;;
66487;SDS011;53304;54.550;18.526;2022-12-08T03:54:47;1.98;;;0.80;;
66487;SDS011;53304;54.550;18.526;2022-12-08T03:57:12;1.25;;;0.75;;
66487;SDS011;53304;54.550;18.526;2022-12-08T03:59:38;2.13;;;0.90;;
66487;SDS011;53304;54.550;18.526;2022-12-08T04:02:03;1.92;;;0.60;;
66487;SDS011;53304;54.550;18.526;2022-12-08T04:04:31;1.63;;;0.60;;
66487;SDS011;53304;54.550;18.526;2022-12-08T04:06:56;1.23;;;0.70;;
66487;SDS011;53304;54.550;18.526;2022-12-08T04:09:22;2.15;;;0.70;;
66487;SDS011;53304;54.550;18.526;2022-12-08T04:11:47;1.13;;;0.60;;
66487;SDS011;53304;54.550;18.526;2022-12-08T04:14:15;1.30;;;0.80;;
66487;SDS011;53304;54.550;18.526;2022-12-08T04:16:42;1.13;;;0.68;;
66487;SDS011;53304;54.550;18.526;2022-12-08T04:19:08;2.17;;;0.82;;
66487;SDS011;53304;54.550;18.526;2022-12-08T04:21:33;1.60;;;0.68;;
66487;SDS011;53304;54.550;18.526;2022-12-08T04:24:01;0.75;;;0.60;;
66487;SDS011;53304;54.550;18.526;2022-12-08T04:26:29;0.95;;;0.60;;
66487;SDS011;53304;54.550;18.526;2022-12-08T04:28:54;1.73;;;0.60;;
66487;SDS011;53304;54.550;18.526;2022-12-08T04:31:19;1.30;;;0.70;;
66487;SDS011;53304;54.550;18.526;2022-12-08T04:33:47;0.93;;;0.60;;
66487;SDS011;53304;54.550;18.526;2022-12-08T04:36:17;1.33;;;0.60;;
66487;SDS011;53304;54.550;18.526;2022-12-08T04:38:47;1.35;;;0.80;;
66487;SDS011;53304;54.550;18.526;2022-12-08T04:41:12;2.03;;;1.00;;
66487;SDS011;53304;54.550;18.526;2022-12-08T04:43:38;1.73;;;1.05;;
66487;SDS011;53304;54.550;18.526;2022-12-08T04:46:05;2.78;;;1.00;;
66487;SDS011;53304;54.550;18.526;2022-12-08T04:48:32;2.88;;;1.23;;
66487;SDS011;53304;54.550;18.526;2022-12-08T04:51:00;2.42;;;1.20;;
66487;SDS011;53304;54.550;18.526;2022-12-08T04:53:28;2.10;;;1.10;;
66487;SDS011;53304;54.550;18.526;2022-12-08T04:55:53;1.67;;;1.00;;
66487;SDS011;53304;54.550;18.526;2022-12-08T04:58:19;1.98;;;1.02;;
66487;SDS011;53304;54.550;18.526;2022-12-08T05:00:47;2.17;;;0.90;;
66487;SDS011;53304;54.550;18.526;2022-12-08T05:03:15;1.42;;;0.80;;
66487;SDS011;53304;54.550;18.526;2022-12-08T05:05:43;3.35;;;1.00;;
66487;SDS011;53304;54.550;18.526;2022-12-08T05:08:09;1.38;;;0.70;;
66487;SDS011;53304;54.550;18.526;2022-12-08T05:10:37;1.67;;;0.98;;
66487;SDS011;53304;54.550;18.526;2022-12-08T05:13:03;1.65;;;0.95;;
66487;SDS011;53304;54.550;18.526;2022-12-08T05:15:28;1.05;;;0.80;;
66487;SDS011;53304;54.550;18.526;2022-12-08T05:17:56;2.47;;;0.80;;
66487;SDS011;53304;54.550;18.526;2022-12-08T05:20:26;1.67;;;1.00;;
66487;SDS011;53304;54.550;18.526;2022-12-08T05:22:52;2.08;;;0.90;;
66487;SDS011;53304;54.550;18.526;2022-12-08T05:25:22;2.30;;;1.00;;
66487;SDS011;53304;54.550;18.526;2022-12-08T05:27:50;2.30;;;1.00;;
66487;SDS011;53304;54.550;18.526;2022-12-08T05:30:18;1.60;;;0.77;;
66487;SDS011;53304;54.550;18.526;2022-12-08T05:32:43;3.53;;;1.00;;
66487;SDS011;53304;54.550;18.526;2022-12-08T05:35:13;1.30;;;0.82;;
66487;SDS011;53304;54.550;18.526;2022-12-08T05:37:39;3.63;;;0.82;;
66487;SDS011;53304;54.550;18.526;2022-12-08T05:40:09;2.25;;;1.00;;
66487;SDS011;53304;54.550;18.526;2022-12-08T05:42:37;1.70;;;0.80;;
66487;SDS011;53304;54.550;18.526;2022-12-08T05:45:05;2.83;;;0.77;;
66487;SDS011;53304;54.550;18.526;2022-12-08T05:47:30;3.08;;;0.85;;
66487;SDS011;53304;54.550;18.526;2022-12-08T05:49:56;2.50;;;1.02;;
66487;SDS011;53304;54.550;18.526;2022-12-08T05:52:23;1.73;;;0.80;;
66487;SDS011;53304;54.550;18.526;2022-12-08T05:54:51;1.00;;;0.70;;
66487;SDS011;53304;54.550;18.526;2022-12-08T05:57:19;1.27;;;0.90;;
66487;SDS011;53304;54.550;18.526;2022-12-08T05:59:47;0.98;;;0.88;;
66487;SDS011;53304;54.550;18.526;2022-12-08T06:02:12;1.58;;;0.80;;
66487;SDS011;53304;54.550;18.526;2022-12-08T06:04:38;1.50;;;0.77;;
66487;SDS011;53304;54.550;18.526;2022-12-08T06:07:04;1.65;;;0.80;;
66487;SDS011;53304;54.550;18.526;2022-12-08T06:09:31;1.73;;;0.75;;
66487;SDS011;53304;54.550;18.526;2022-12-08T06:12:00;1.20;;;0.60;;
66487;SDS011;53304;54.550;18.526;2022-12-08T06:14:25;1.13;;;0.57;;
66487;SDS011;53304;54.550;18.526;2022-12-08T06:16:53;2.40;;;1.00;;
66487;SDS011;53304;54.550;18.526;2022-12-08T06:19:21;2.00;;;1.00;;
66487;SDS011;53304;54.550;18.526;2022-12-08T06:21:46;1.88;;;0.93;;
66487;SDS011;53304;54.550;18.526;2022-12-08T06:24:15;1.67;;;0.90;;
66487;SDS011;53304;54.550;18.526;2022-12-08T06:26:40;1.88;;;0.90;;
66487;SDS011;53304;54.550;18.526;2022-12-08T06:29:06;6.68;;;1.05;;
66487;SDS011;53304;54.550;18.526;2022-12-08T06:31:31;2.53;;;0.93;;
66487;SDS011;53304;54.550;18.526;2022-12-08T06:33:59;1.73;;;0.77;;
66487;SDS011;53304;54.550;18.526;2022-12-08T06:36:30;2.47;;;0.82;;
66487;SDS011;53304;54.550;18.526;2022-12-08T06:39:01;2.53;;;1.20;;
66487;SDS011;53304;54.550;18.526;2022-12-08T06:41:26;5.40;;;0.80;;
66487;SDS011;53304;54.550;18.526;2022-12-08T06:43:54;5.63;;;1.27;;
66487;SDS011;53304;54.550;18.526;2022-12-08T06:46:21;13.88;;;2.22;;
66487;SDS011;53304;54.550;18.526;2022-12-08T06:48:48;6.10;;;1.20;;
66487;SDS011;53304;54.550;18.526;2022-12-08T06:51:18;6.88;;;1.40;;
66487;SDS011;53304;54.550;18.526;2022-12-08T06:53:44;9.60;;;1.45;;
66487;SDS011;53304;54.550;18.526;2022-12-08T06:56:14;6.50;;;1.17;;
66487;SDS011;53304;54.550;18.526;2022-12-08T06:58:42;6.55;;;1.85;;
66487;SDS011;53304;54.550;18.526;2022-12-08T07:01:08;7.45;;;1.20;;
66487;SDS011;53304;54.550;18.526;2022-12-08T07:03:36;8.93;;;1.55;;
66487;SDS011;53304;54.550;18.526;2022-12-08T07:06:02;10.60;;;1.23;;
66487;SDS011;53304;54.550;18.526;2022-12-08T07:08:28;3.33;;;0.90;;
66487;SDS011;53304;54.550;18.526;2022-12-08T07:10:54;5.65;;;1.27;;
66487;SDS011;53304;54.550;18.526;2022-12-08T07:13:24;9.35;;;1.20;;
66487;SDS011;53304;54.550;18.526;2022-12-08T07:15:51;2.35;;;1.10;;
66487;SDS011;53304;54.550;18.526;2022-12-08T07:18:17;3.50;;;0.85;;
66487;SDS011;53304;54.550;18.526;2022-12-08T07:20:42;6.90;;;1.48;;
66487;SDS011;53304;54.550;18.526;2022-12-08T07:23:10;4.13;;;1.20;;
66487;SDS011;53304;54.550;18.526;2022-12-08T07:25:35;3.97;;;1.20;;
66487;SDS011;53304;54.550;18.526;2022-12-08T07:28:05;1.70;;;0.93;;
66487;SDS011;53304;54.550;18.526;2022-12-08T07:30:34;2.70;;;1.10;;
66487;SDS011;53304;54.550;18.526;2022-12-08T07:33:01;2.80;;;1.13;;
66487;SDS011;53304;54.550;18.526;2022-12-08T07:35:27;4.35;;;0.90;;
66487;SDS011;53304;54.550;18.526;2022-12-08T07:37:55;4.05;;;1.30;;
66487;SDS011;53304;54.550;18.526;2022-12-08T07:40:21;2.72;;;1.00;;
66487;SDS011;53304;54.550;18.526;2022-12-08T07:42:47;2.47;;;1.23;;
66487;SDS011;53304;54.550;18.526;2022-12-08T07:45:12;3.75;;;1.00;;
66487;SDS011;53304;54.550;18.526;2022-12-08T07:47:37;4.40;;;1.13;;
66487;SDS011;53304;54.550;18.526;2022-12-08T07:50:07;3.50;;;1.15;;
66487;SDS011;53304;54.550;18.526;2022-12-08T07:52:33;2.75;;;1.02;;
66487;SDS011;53304;54.550;18.526;2022-12-08T07:55:03;2.17;;;1.00;;
66487;SDS011;53304;54.550;18.526;2022-12-08T07:57:34;2.75;;;1.10;;
66487;SDS011;53304;54.550;18.526;2022-12-08T08:00:02;2.33;;;1.00;;
66487;SDS011;53304;54.550;18.526;2022-12-08T08:02:28;3.10;;;1.10;;
66487;SDS011;53304;54.550;18.526;2022-12-08T08:04:58;3.17;;;1.30;;
66487;SDS011;53304;54.550;18.526;2022-12-08T08:07:26;3.00;;;1.30;;
66487;SDS011;53304;54.550;18.526;2022-12-08T08:09:56;2.10;;;1.00;;
66487;SDS011;53304;54.550;18.526;2022-12-08T08:12:22;2.50;;;1.20;;
66487;SDS011;53304;54.550;18.526;2022-12-08T08:14:47;3.83;;;1.30;;
66487;SDS011;53304;54.550;18.526;2022-12-08T08:17:15;3.22;;;1.30;;
66487;SDS011;53304;54.550;18.526;2022-12-08T08:19:40;3.78;;;1.42;;
66487;SDS011;53304;54.550;18.526;2022-12-08T08:22:09;3.10;;;1.40;;
66487;SDS011;53304;54.550;18.526;2022-12-08T08:24:35;1.83;;;1.23;;
66487;SDS011;53304;54.550;18.526;2022-12-08T08:27:00;2.72;;;1.13;;
66487;SDS011;53304;54.550;18.526;2022-12-08T08:29:30;1.90;;;1.20;;
66487;SDS011;53304;54.550;18.526;2022-12-08T08:31:58;2.72;;;1.20;;
66487;SDS011;53304;54.550;18.526;2022-12-08T08:34:28;2.80;;;1.35;;
66487;SDS011;53304;54.550;18.526;2022-12-08T08:36:56;2.47;;;1.23;;
66487;SDS011;53304;54.550;18.526;2022-12-08T08:39:21;3.08;;;1.30;;
66487;SDS011;53304;54.550;18.526;2022-12-08T08:41:49;3.25;;;1.35;;
66487;SDS011;53304;54.550;18.526;2022-12-08T08:44:16;2.63;;;1.40;;
66487;SDS011;53304;54.550;18.526;2022-12-08T08:46:44;3.72;;;1.35;;
66487;SDS011;53304;54.550;18.526;2022-12-08T08:49:10;3.53;;;1.40;;
66487;SDS011;53304;54.550;18.526;2022-12-08T08:51:37;2.78;;;1.23;;
66487;SDS011;53304;54.550;18.526;2022-12-08T08:54:03;3.03;;;1.38;;
66487;SDS011;53304;54.550;18.526;2022-12-08T08:56:29;3.20;;;1.23;;
66487;SDS011;53304;54.550;18.526;2022-12-08T08:58:59;3.97;;;1.40;;
66487;SDS011;53304;54.550;18.526;2022-12-08T09:01:27;5.50;;;1.50;;
66487;SDS011;53304;54.550;18.526;2022-12-08T09:03:57;9.30;;;1.77;;
66487;SDS011;53304;54.550;18.526;2022-12-08T09:06:23;4.47;;;1.63;;
66487;SDS011;53304;54.550;18.526;2022-12-08T09:08:51;4.93;;;1.50;;
66487;SDS011;53304;54.550;18.526;2022-12-08T09:11:17;7.88;;;1.60;;
66487;SDS011;53304;54.550;18.526;2022-12-08T09:13:43;4.15;;;1.40;;
66487;SDS011;53304;54.550;18.526;2022-12-08T09:16:13;3.75;;;1.60;;
66487;SDS011;53304;54.550;18.526;2022-12-08T09:18:39;8.85;;;1.50;;
66487;SDS011;53304;54.550;18.526;2022-12-08T09:21:05;4.90;;;1.65;;
66487;SDS011;53304;54.550;18.526;2022-12-08T09:23:32;10.60;;;2.20;;
66487;SDS011;53304;54.550;18.526;2022-12-08T09:26:00;8.95;;;1.80;;
66487;SDS011;53304;54.550;18.526;2022-12-08T09:28:26;5.13;;;1.80;;
66487;SDS011;53304;54.550;18.526;2022-12-08T09:30:51;4.32;;;1.70;;
66487;SDS011;53304;54.550;18.526;2022-12-08T09:33:16;8.50;;;1.90;;
66487;SDS011;53304;54.550;18.526;2022-12-08T09:35:42;4.53;;;2.00;;
66487;SDS011;53304;54.550;18.526;2022-12-08T09:38:10;6.70;;;1.70;;
66487;SDS011;53304;54.550;18.526;2022-12-08T09:40:36;7.43;;;1.70;;
66487;SDS011;53304;54.550;18.526;2022-12-08T09:45:50;6.80;;;1.83;;
66487;SDS011;53304;54.550;18.526;2022-12-08T09:48:20;4.60;;;1.65;;
66487;SDS011;53304;54.550;18.526;2022-12-08T09:53:19;5.05;;;1.80;;
66487;SDS011;53304;54.550;18.526;2022-12-08T09:55:51;4.35;;;1.70;;
66487;SDS011;53304;54.550;18.526;2022-12-08T09:58:20;4.82;;;1.52;;
66487;SDS011;53304;54.550;18.526;2022-12-08T10:00:51;6.07;;;1.80;;
66487;SDS011;53304;54.550;18.526;2022-12-08T10:03:19;3.30;;;1.70;;
66487;SDS011;53304;54.550;18.526;2022-12-08T10:08:35;3.47;;;1.60;;
66487;SDS011;53304;54.550;18.526;2022-12-08T10:11:21;5.15;;;1.80;;
66487;SDS011;53304;54.550;18.526;2022-12-08T10:14:00;4.85;;;1.60;;
66487;SDS011;53304;54.550;18.526;2022-12-08T10:16:40;5.07;;;1.77;;
66487;SDS011;53304;54.550;18.526;2022-12-08T10:19:13;3.47;;;1.50;;
66487;SDS011;53304;54.550;18.526;2022-12-08T10:21:42;6.32;;;1.90;;
66487;SDS011;53304;54.550;18.526;2022-12-08T10:24:51;5.68;;;1.90;;
66487;SDS011;53304;54.550;18.526;2022-12-08T10:27:03;4.43;;;1.70;;
66487;SDS011;53304;54.550;18.526;2022-12-08T10:29:32;4.65;;;1.70;;
66487;SDS011;53304;54.550;18.526;2022-12-08T10:31:58;3.92;;;1.70;;
66487;SDS011;53304;54.550;18.526;2022-12-08T10:34:24;4.55;;;1.90;;
66487;SDS011;53304;54.550;18.526;2022-12-08T10:47:37;4.07;;;1.90;;
66487;SDS011;53304;54.550;18.526;2022-12-08T10:50:09;5.05;;;2.13;;
66487;SDS011;53304;54.550;18.526;2022-12-08T10:56:04;4.22;;;2.00;;
66487;SDS011;53304;54.550;18.526;2022-12-08T10:58:35;5.03;;;2.13;;
66487;SDS011;53304;54.550;18.526;2022-12-08T11:01:14;4.43;;;1.90;;
66487;SDS011;53304;54.550;18.526;2022-12-08T11:03:47;4.50;;;2.10;;
66487;SDS011;53304;54.550;18.526;2022-12-08T11:06:15;5.03;;;2.10;;
66487;SDS011;53304;54.550;18.526;2022-12-08T11:09:02;4.72;;;2.03;;
66487;SDS011;53304;54.550;18.526;2022-12-08T11:14:11;4.07;;;2.30;;
66487;SDS011;53304;54.550;18.526;2022-12-08T11:16:43;4.47;;;2.10;;
66487;SDS011;53304;54.550;18.526;2022-12-08T11:19:11;4.45;;;2.13;;
66487;SDS011;53304;54.550;18.526;2022-12-08T11:21:39;4.13;;;2.28;;
66487;SDS011;53304;54.550;18.526;2022-12-08T11:24:26;5.18;;;2.30;;
66487;SDS011;53304;54.550;18.526;2022-12-08T11:26:58;3.80;;;2.33;;
66487;SDS011;53304;54.550;18.526;2022-12-08T11:29:26;4.15;;;2.28;;
66487;SDS011;53304;54.550;18.526;2022-12-08T11:32:10;5.70;;;2.25;;
66487;SDS011;53304;54.550;18.526;2022-12-08T11:34:43;5.70;;;2.40;;
66487;SDS011;53304;54.550;18.526;2022-12-08T11:40:09;4.13;;;2.35;;
66487;SDS011;53304;54.550;18.526;2022-12-08T11:43:05;6.60;;;2.50;;
66487;SDS011;53304;54.550;18.526;2022-12-08T11:45:27;5.18;;;2.55;;
66487;SDS011;53304;54.550;18.526;2022-12-08T11:48:01;5.15;;;2.45;;
66487;SDS011;53304;54.550;18.526;2022-12-08T11:50:36;5.65;;;2.35;;
66487;SDS011;53304;54.550;18.526;2022-12-08T11:53:08;4.97;;;2.70;;
66487;SDS011;53304;54.550;18.526;2022-12-08T11:55:42;5.32;;;2.55;;
66487;SDS011;53304;54.550;18.526;2022-12-08T11:58:24;5.70;;;2.90;;
66487;SDS011;53304;54.550;18.526;2022-12-08T12:00:51;6.25;;;3.05;;
66487;SDS011;53304;54.550;18.526;2022-12-08T12:11:37;5.20;;;3.10;;
66487;SDS011;53304;54.550;18.526;2022-12-08T12:17:31;6.30;;;2.78;;
66487;SDS011;53304;54.550;18.526;2022-12-08T12:19:57;7.78;;;3.38;;
66487;SDS011;53304;54.550;18.526;2022-12-08T12:22:28;5.55;;;2.72;;
66487;SDS011;53304;54.550;18.526;2022-12-08T12:27:32;6.10;;;2.90;;
66487;SDS011;53304;54.550;18.526;2022-12-08T12:30:03;6.78;;;3.10;;
66487;SDS011;53304;54.550;18.526;2022-12-08T12:32:43;5.90;;;2.92;;
66487;SDS011;53304;54.550;18.526;2022-12-08T12:37:55;5.75;;;3.40;;
66487;SDS011;53304;54.550;18.526;2022-12-08T12:40:23;5.93;;;3.25;;
66487;SDS011;53304;54.550;18.526;2022-12-08T12:50:13;7.20;;;3.30;;
66487;SDS011;53304;54.550;18.526;2022-12-08T12:52:41;6.75;;;3.33;;
66487;SDS011;53304;54.550;18.526;2022-12-08T12:57:48;7.53;;;3.65;;
66487;SDS011;53304;54.550;18.526;2022-12-08T13:00:29;7.33;;;3.40;;
66487;SDS011;53304;54.550;18.526;2022-12-08T13:02:59;8.10;;;3.13;;
66487;SDS011;53304;54.550;18.526;2022-12-08T13:10:39;8.77;;;3.80;;
66487;SDS011;53304;54.550;18.526;2022-12-08T13:13:20;6.82;;;3.47;;
66487;SDS011;53304;54.550;18.526;2022-12-08T13:15:52;6.57;;;3.35;;
66487;SDS011;53304;54.550;18.526;2022-12-08T13:18:20;5.88;;;3.30;;
66487;SDS011;53304;54.550;18.526;2022-12-08T13:20:56;6.18;;;3.10;;
66487;SDS011;53304;54.550;18.526;2022-12-08T13:44:42;6.50;;;3.15;;
66487;SDS011;53304;54.550;18.526;2022-12-08T13:47:12;5.68;;;2.88;;
66487;SDS011;53304;54.550;18.526;2022-12-08T13:49:41;6.32;;;3.20;;
66487;SDS011;53304;54.550;18.526;2022-12-08T13:52:16;6.18;;;3.25;;
66487;SDS011;53304;54.550;18.526;2022-12-08T13:54:45;7.82;;;3.22;;
66487;SDS011;53304;54.550;18.526;2022-12-08T13:57:17;6.75;;;3.13;;
66487;SDS011;53304;54.550;18.526;2022-12-08T14:00:06;5.70;;;3.30;;
66487;SDS011;53304;54.550;18.526;2022-12-08T14:02:40;6.30;;;3.40;;
66487;SDS011;53304;54.550;18.526;2022-12-08T14:05:10;7.40;;;3.40;;
66487;SDS011;53304;54.550;18.526;2022-12-08T14:07:40;5.20;;;3.05;;
66487;SDS011;53304;54.550;18.526;2022-12-08T14:10:08;6.25;;;3.20;;
66487;SDS011;53304;54.550;18.526;2022-12-08T14:12:41;5.82;;;3.03;;
66487;SDS011;53304;54.550;18.526;2022-12-08T14:15:10;5.72;;;3.35;;
66487;SDS011;53304;54.550;18.526;2022-12-08T14:17:38;5.50;;;3.15;;
66487;SDS011;53304;54.550;18.526;2022-12-08T14:20:19;12.73;;;4.15;;
66487;SDS011;53304;54.550;18.526;2022-12-08T14:22:44;10.82;;;3.13;;
66487;SDS011;53304;54.550;18.526;2022-12-08T14:25:13;10.85;;;3.40;;
66487;SDS011;53304;54.550;18.526;2022-12-08T14:27:41;21.00;;;3.85;;
66487;SDS011;53304;54.550;18.526;2022-12-08T14:35:16;9.70;;;3.63;;
66487;SDS011;53304;54.550;18.526;2022-12-08T14:37:52;8.40;;;3.75;;
66487;SDS011;53304;54.550;18.526;2022-12-08T14:45:34;7.43;;;3.30;;
66487;SDS011;53304;54.550;18.526;2022-12-08T14:53:38;6.63;;;3.45;;
66487;SDS011;53304;54.550;18.526;2022-12-08T14:56:19;7.10;;;3.15;;
66487;SDS011;53304;54.550;18.526;2022-12-08T14:58:49;6.72;;;3.38;;
66487;SDS011;53304;54.550;18.526;2022-12-08T15:01:16;5.90;;;3.30;;
66487;SDS011;53304;54.550;18.526;2022-12-08T15:03:46;6.10;;;3.38;;
66487;SDS011;53304;54.550;18.526;2022-12-08T15:06:12;7.45;;;3.60;;
66487;SDS011;53304;54.550;18.526;2022-12-08T15:08:55;7.07;;;3.28;;
66487;SDS011;53304;54.550;18.526;2022-12-08T15:11:31;5.95;;;3.38;;
66487;SDS011;53304;54.550;18.526;2022-12-08T15:13:58;5.78;;;3.50;;
66487;SDS011;53304;54.550;18.526;2022-12-08T15:16:25;6.15;;;3.20;;
66487;SDS011;53304;54.550;18.526;2022-12-08T15:19:21;6.03;;;3.45;;
66487;SDS011;53304;54.550;18.526;2022-12-08T15:21:51;4.97;;;3.20;;
66487;SDS011;53304;54.550;18.526;2022-12-08T15:24:21;5.18;;;3.20;;
66487;SDS011;53304;54.550;18.526;2022-12-08T15:26:48;7.07;;;3.30;;
66487;SDS011;53304;54.550;18.526;2022-12-08T15:29:18;6.53;;;3.30;;
66487;SDS011;53304;54.550;18.526;2022-12-08T15:31:46;6.18;;;3.38;;
66487;SDS011;53304;54.550;18.526;2022-12-08T15:34:11;7.55;;;3.75;;
66487;SDS011;53304;54.550;18.526;2022-12-08T15:36:37;5.53;;;3.40;;
66487;SDS011;53304;54.550;18.526;2022-12-08T15:39:09;6.05;;;3.30;;
66487;SDS011;53304;54.550;18.526;2022-12-08T15:42:01;9.00;;;3.80;;
66487;SDS011;53304;54.550;18.526;2022-12-08T15:44:30;5.93;;;3.33;;
66487;SDS011;53304;54.550;18.526;2022-12-08T15:47:00;5.57;;;3.53;;
66487;SDS011;53304;54.550;18.526;2022-12-08T15:49:28;6.68;;;3.80;;
66487;SDS011;53304;54.550;18.526;2022-12-08T15:51:54;6.05;;;3.67;;
66487;SDS011;53304;54.550;18.526;2022-12-08T15:54:22;5.68;;;3.30;;
66487;SDS011;53304;54.550;18.526;2022-12-08T15:56:53;5.50;;;3.47;;
66487;SDS011;53304;54.550;18.526;2022-12-08T15:59:20;5.90;;;3.50;;
66487;SDS011;53304;54.550;18.526;2022-12-08T16:01:49;5.30;;;3.47;;
66487;SDS011;53304;54.550;18.526;2022-12-08T16:04:19;5.55;;;3.30;;
66487;SDS011;53304;54.550;18.526;2022-12-08T16:06:50;6.13;;;3.55;;
66487;SDS011;53304;54.550;18.526;2022-12-08T16:09:22;5.68;;;3.50;;
66487;SDS011;53304;54.550;18.526;2022-12-08T16:11:55;5.82;;;3.35;;
66487;SDS011;53304;54.550;18.526;2022-12-08T16:14:38;5.00;;;3.35;;
66487;SDS011;53304;54.550;18.526;2022-12-08T16:17:07;6.00;;;3.47;;
66487;SDS011;53304;54.550;18.526;2022-12-08T16:19:47;5.30;;;3.63;;
66487;SDS011;53304;54.550;18.526;2022-12-08T16:22:16;5.20;;;3.40;;
66487;SDS011;53304;54.550;18.526;2022-12-08T16:24:47;7.28;;;3.97;;
66487;SDS011;53304;54.550;18.526;2022-12-08T16:27:15;6.55;;;3.50;;
66487;SDS011;53304;54.550;18.526;2022-12-08T16:29:46;6.63;;;3.80;;
66487;SDS011;53304;54.550;18.526;2022-12-08T16:32:14;6.47;;;3.60;;
66487;SDS011;53304;54.550;18.526;2022-12-08T16:34:41;5.60;;;3.58;;
66487;SDS011;53304;54.550;18.526;2022-12-08T16:37:19;6.20;;;3.70;;
66487;SDS011;53304;54.550;18.526;2022-12-08T16:39:48;6.75;;;3.60;;
66487;SDS011;53304;54.550;18.526;2022-12-08T16:42:17;5.63;;;3.75;;
66487;SDS011;53304;54.550;18.526;2022-12-08T16:47:42;6.70;;;3.50;;
66487;SDS011;53304;54.550;18.526;2022-12-08T16:50:15;7.03;;;3.80;;
66487;SDS011;53304;54.550;18.526;2022-12-08T16:52:44;4.93;;;3.20;;
66487;SDS011;53304;54.550;18.526;2022-12-08T16:55:11;5.88;;;3.80;;
66487;SDS011;53304;54.550;18.526;2022-12-08T16:57:38;6.82;;;4.03;;
66487;SDS011;53304;54.550;18.526;2022-12-08T17:00:05;7.40;;;4.07;;
66487;SDS011;53304;54.550;18.526;2022-12-08T17:02:32;7.15;;;3.75;;